sensor_id;sensor_type;location;lat;lon;timestamp;P1;durP1;ratioP1;P2;durP2;ratioP2
52031;SDS011;38044;45.148;39.604;2023-05-14T00:02:09;6.00;;;4.50;;
52031;SDS011;38044;45.148;39.604;2023-05-14T00:04:35;5.20;;;3.60;;
52031;SDS011;38044;45.148;39.604;2023-05-14T00:07:01;5.80;;;4.28;;
52031;SDS011;38044;45.148;39.604;2023-05-14T00:09:27;6.22;;;4.00;;
52031;SDS011;38044;45.148;39.604;2023-05-14T00:11:54;8.63;;;4.13;;
52031;SDS011;38044;45.148;39.604;2023-05-14T00:14:20;6.65;;;4.18;;
52031;SDS011;38044;45.148;39.604;2023-05-14T00:16:46;5.45;;;4.20;;
52031;SDS011;38044;45.148;39.604;2023-05-14T00:19:12;6.38;;;4.15;;
52031;SDS011;38044;45.148;39.604;2023-05-14T00:21:38;8.20;;;4.30;;
52031;SDS011;38044;45.148;39.604;2023-05-14T00:24:04;5.72;;;4.50;;
52031;SDS011;38044;45.148;39.604;2023-05-14T00:26:30;8.88;;;4.32;;
52031;SDS011;38044;45.148;39.604;2023-05-14T00:28:55;6.07;;;4.95;;
52031;SDS011;38044;45.148;39.604;2023-05-14T00:31:21;8.27;;;4.65;;
52031;SDS011;38044;45.148;39.604;2023-05-14T00:33:47;5.93;;;4.30;;
52031;SDS011;38044;45.148;39.604;2023-05-14T00:36:13;5.72;;;4.18;;
52031;SDS011;38044;45.148;39.604;2023-05-14T00:38:38;6.78;;;4.68;;
52031;SDS011;38044;45.148;39.604;2023-05-14T00:41:04;5.47;;;4.50;;
52031;SDS011;38044;45.148;39.604;2023-05-14T00:43:30;6.38;;;4.53;;
52031;SDS011;38044;45.148;39.604;2023-05-14T00:45:57;5.85;;;4.35;;
52031;SDS011;38044;45.148;39.604;2023-05-14T00:48:23;7.35;;;4.57;;
52031;SDS011;38044;45.148;39.604;2023-05-14T00:50:49;6.10;;;4.60;;
52031;SDS011;38044;45.148;39.604;2023-05-14T00:53:17;7.63;;;5.10;;
52031;SDS011;38044;45.148;39.604;2023-05-14T00:55:43;7.88;;;4.93;;
52031;SDS011;38044;45.148;39.604;2023-05-14T00:58:12;7.88;;;4.53;;
52031;SDS011;38044;45.148;39.604;2023-05-14T01:00:38;6.38;;;4.85;;
52031;SDS011;38044;45.148;39.604;2023-05-14T01:03:05;7.20;;;4.43;;
52031;SDS011;38044;45.148;39.604;2023-05-14T01:11:31;6.20;;;4.40;;
52031;SDS011;38044;45.148;39.604;2023-05-14T01:16:58;7.90;;;4.47;;
52031;SDS011;38044;45.148;39.604;2023-05-14T01:22:01;5.78;;;4.15;;
52031;SDS011;38044;45.148;39.604;2023-05-14T01:24:27;5.60;;;4.20;;
52031;SDS011;38044;45.148;39.604;2023-05-14T01:26:54;7.03;;;4.40;;
52031;SDS011;38044;45.148;39.604;2023-05-14T01:31:58;6.07;;;4.00;;
52031;SDS011;38044;45.148;39.604;2023-05-14T01:58:48;6.00;;;4.28;;
52031;SDS011;38044;45.148;39.604;2023-05-14T02:01:14;6.78;;;4.88;;
52031;SDS011;38044;45.148;39.604;2023-05-14T02:03:40;8.93;;;4.60;;
52031;SDS011;38044;45.148;39.604;2023-05-14T02:06:06;8.23;;;4.88;;
52031;SDS011;38044;45.148;39.604;2023-05-14T02:08:31;7.15;;;4.75;;
52031;SDS011;38044;45.148;39.604;2023-05-14T02:10:57;5.97;;;4.95;;
52031;SDS011;38044;45.148;39.604;2023-05-14T02:13:24;6.20;;;4.90;;
52031;SDS011;38044;45.148;39.604;2023-05-14T02:15:50;8.73;;;5.97;;
52031;SDS011;38044;45.148;39.604;2023-05-14T02:18:17;8.60;;;5.35;;
52031;SDS011;38044;45.148;39.604;2023-05-14T02:20:46;9.98;;;5.50;;
52031;SDS011;38044;45.148;39.604;2023-05-14T02:23:12;6.47;;;5.28;;
52031;SDS011;38044;45.148;39.604;2023-05-14T02:25:38;6.18;;;4.95;;
52031;SDS011;38044;45.148;39.604;2023-05-14T02:28:03;6.97;;;4.88;;
52031;SDS011;38044;45.148;39.604;2023-05-14T02:30:29;7.80;;;5.60;;
52031;SDS011;38044;45.148;39.604;2023-05-14T02:32:55;8.98;;;6.28;;
52031;SDS011;38044;45.148;39.604;2023-05-14T02:35:21;9.85;;;6.30;;
52031;SDS011;38044;45.148;39.604;2023-05-14T02:37:47;6.95;;;5.88;;
52031;SDS011;38044;45.148;39.604;2023-05-14T02:40:13;7.15;;;5.53;;
52031;SDS011;38044;45.148;39.604;2023-05-14T02:42:39;9.10;;;5.75;;
52031;SDS011;38044;45.148;39.604;2023-05-14T02:45:05;7.50;;;5.32;;
52031;SDS011;38044;45.148;39.604;2023-05-14T02:47:31;8.82;;;5.15;;
52031;SDS011;38044;45.148;39.604;2023-05-14T02:49:57;6.05;;;4.65;;
52031;SDS011;38044;45.148;39.604;2023-05-14T02:52:22;7.53;;;5.60;;
52031;SDS011;38044;45.148;39.604;2023-05-14T02:54:48;6.57;;;4.97;;
52031;SDS011;38044;45.148;39.604;2023-05-14T02:57:14;6.55;;;5.03;;
52031;SDS011;38044;45.148;39.604;2023-05-14T02:59:40;9.60;;;5.90;;
52031;SDS011;38044;45.148;39.604;2023-05-14T03:02:06;8.85;;;5.65;;
52031;SDS011;38044;45.148;39.604;2023-05-14T03:04:31;8.73;;;5.82;;
52031;SDS011;38044;45.148;39.604;2023-05-14T03:06:57;6.47;;;5.30;;
52031;SDS011;38044;45.148;39.604;2023-05-14T03:09:23;10.02;;;5.72;;
52031;SDS011;38044;45.148;39.604;2023-05-14T03:11:49;8.60;;;5.60;;
52031;SDS011;38044;45.148;39.604;2023-05-14T03:14:15;10.40;;;5.63;;
52031;SDS011;38044;45.148;39.604;2023-05-14T03:16:40;7.82;;;5.47;;
52031;SDS011;38044;45.148;39.604;2023-05-14T03:19:06;8.40;;;5.97;;
52031;SDS011;38044;45.148;39.604;2023-05-14T03:21:33;11.05;;;5.63;;
52031;SDS011;38044;45.148;39.604;2023-05-14T03:23:59;7.45;;;5.32;;
52031;SDS011;38044;45.148;39.604;2023-05-14T03:26:26;8.98;;;5.22;;
52031;SDS011;38044;45.148;39.604;2023-05-14T03:28:54;11.00;;;6.03;;
52031;SDS011;38044;45.148;39.604;2023-05-14T03:31:20;8.43;;;5.60;;
52031;SDS011;38044;45.148;39.604;2023-05-14T03:33:46;8.48;;;5.57;;
52031;SDS011;38044;45.148;39.604;2023-05-14T03:36:12;28.83;;;6.47;;
52031;SDS011;38044;45.148;39.604;2023-05-14T03:38:38;8.52;;;5.85;;
52031;SDS011;38044;45.148;39.604;2023-05-14T04:05:29;8.50;;;5.40;;
52031;SDS011;38044;45.148;39.604;2023-05-14T04:07:54;7.28;;;5.50;;
52031;SDS011;38044;45.148;39.604;2023-05-14T04:10:22;6.85;;;4.95;;
52031;SDS011;38044;45.148;39.604;2023-05-14T04:12:48;8.02;;;5.03;;
52031;SDS011;38044;45.148;39.604;2023-05-14T04:15:14;6.78;;;4.88;;
52031;SDS011;38044;45.148;39.604;2023-05-14T04:17:39;7.18;;;4.07;;
52031;SDS011;38044;45.148;39.604;2023-05-14T04:20:05;6.90;;;5.20;;
52031;SDS011;38044;45.148;39.604;2023-05-14T04:22:32;7.77;;;5.50;;
52031;SDS011;38044;45.148;39.604;2023-05-14T04:24:58;7.93;;;5.57;;
52031;SDS011;38044;45.148;39.604;2023-05-14T04:29:49;7.25;;;5.53;;
52031;SDS011;38044;45.148;39.604;2023-05-14T04:32:15;9.13;;;6.35;;
52031;SDS011;38044;45.148;39.604;2023-05-14T04:34:41;10.15;;;5.82;;
52031;SDS011;38044;45.148;39.604;2023-05-14T04:37:07;9.70;;;6.50;;
52031;SDS011;38044;45.148;39.604;2023-05-14T04:39:34;8.20;;;6.38;;
52031;SDS011;38044;45.148;39.604;2023-05-14T04:42:00;8.52;;;5.95;;
52031;SDS011;38044;45.148;39.604;2023-05-14T04:44:25;9.38;;;6.40;;
52031;SDS011;38044;45.148;39.604;2023-05-14T04:46:51;7.13;;;5.70;;
52031;SDS011;38044;45.148;39.604;2023-05-14T04:49:17;7.28;;;4.72;;
52031;SDS011;38044;45.148;39.604;2023-05-14T04:51:43;7.20;;;5.15;;
52031;SDS011;38044;45.148;39.604;2023-05-14T04:54:09;5.50;;;4.43;;
52031;SDS011;38044;45.148;39.604;2023-05-14T04:56:34;6.40;;;4.53;;
52031;SDS011;38044;45.148;39.604;2023-05-14T04:59:00;15.30;;;5.50;;
52031;SDS011;38044;45.148;39.604;2023-05-14T05:01:26;5.90;;;4.80;;
52031;SDS011;38044;45.148;39.604;2023-05-14T05:03:52;7.75;;;4.50;;
52031;SDS011;38044;45.148;39.604;2023-05-14T05:25:42;7.72;;;5.53;;
52031;SDS011;38044;45.148;39.604;2023-05-14T05:32:59;6.03;;;4.40;;
52031;SDS011;38044;45.148;39.604;2023-05-14T05:45:07;4.93;;;4.00;;
52031;SDS011;38044;45.148;39.604;2023-05-14T05:47:33;5.82;;;4.00;;
52031;SDS011;38044;45.148;39.604;2023-05-14T05:49:59;6.53;;;3.95;;
52031;SDS011;38044;45.148;39.604;2023-05-14T05:52:25;6.82;;;4.00;;
52031;SDS011;38044;45.148;39.604;2023-05-14T05:57:16;4.93;;;3.53;;
52031;SDS011;38044;45.148;39.604;2023-05-14T06:14:15;2.13;;;1.65;;
52031;SDS011;38044;45.148;39.604;2023-05-14T06:16:41;3.40;;;1.80;;
52031;SDS011;38044;45.148;39.604;2023-05-14T06:19:07;4.03;;;1.77;;
52031;SDS011;38044;45.148;39.604;2023-05-14T06:21:34;2.90;;;1.90;;
52031;SDS011;38044;45.148;39.604;2023-05-14T06:24:00;2.55;;;1.60;;
52031;SDS011;38044;45.148;39.604;2023-05-14T06:26:25;3.45;;;1.40;;
52031;SDS011;38044;45.148;39.604;2023-05-14T06:31:17;1.88;;;1.60;;
52031;SDS011;38044;45.148;39.604;2023-05-14T06:33:43;4.30;;;1.73;;
52031;SDS011;38044;45.148;39.604;2023-05-14T06:41:00;4.13;;;1.50;;
52031;SDS011;38044;45.148;39.604;2023-05-14T06:43:26;3.03;;;1.75;;
52031;SDS011;38044;45.148;39.604;2023-05-14T06:45:52;2.65;;;1.80;;
52031;SDS011;38044;45.148;39.604;2023-05-14T06:50:44;2.47;;;1.48;;
52031;SDS011;38044;45.148;39.604;2023-05-14T06:53:11;3.22;;;1.75;;
52031;SDS011;38044;45.148;39.604;2023-05-14T06:55:37;6.95;;;1.50;;
52031;SDS011;38044;45.148;39.604;2023-05-14T06:58:04;3.08;;;1.80;;
52031;SDS011;38044;45.148;39.604;2023-05-14T07:00:31;1.92;;;1.70;;
52031;SDS011;38044;45.148;39.604;2023-05-14T07:12:39;1.90;;;1.67;;
52031;SDS011;38044;45.148;39.604;2023-05-14T07:24:48;5.03;;;2.70;;
52031;SDS011;38044;45.148;39.604;2023-05-14T07:27:14;2.45;;;1.80;;
52031;SDS011;38044;45.148;39.604;2023-05-14T07:32:07;3.83;;;1.90;;
52031;SDS011;38044;45.148;39.604;2023-05-14T07:34:33;2.97;;;1.83;;
52031;SDS011;38044;45.148;39.604;2023-05-14T07:36:59;2.25;;;1.77;;
52031;SDS011;38044;45.148;39.604;2023-05-14T07:39:25;2.97;;;2.20;;
52031;SDS011;38044;45.148;39.604;2023-05-14T07:41:51;39.55;;;4.65;;
52031;SDS011;38044;45.148;39.604;2023-05-14T07:44:19;3.25;;;1.77;;
52031;SDS011;38044;45.148;39.604;2023-05-14T08:06:10;2.20;;;1.85;;
52031;SDS011;38044;45.148;39.604;2023-05-14T08:08:36;2.95;;;2.22;;
52031;SDS011;38044;45.148;39.604;2023-05-14T08:11:02;7.90;;;2.40;;
52031;SDS011;38044;45.148;39.604;2023-05-14T08:13:28;12.00;;;2.85;;
52031;SDS011;38044;45.148;39.604;2023-05-14T08:15:54;3.15;;;2.17;;
52031;SDS011;38044;45.148;39.604;2023-05-14T08:18:20;2.80;;;2.10;;
52031;SDS011;38044;45.148;39.604;2023-05-14T08:20:46;3.27;;;2.30;;
52031;SDS011;38044;45.148;39.604;2023-05-14T08:23:12;3.88;;;2.25;;
52031;SDS011;38044;45.148;39.604;2023-05-14T08:30:29;4.18;;;2.05;;
52031;SDS011;38044;45.148;39.604;2023-05-14T08:32:55;3.88;;;2.25;;
52031;SDS011;38044;45.148;39.604;2023-05-14T08:35:22;8.25;;;4.22;;
52031;SDS011;38044;45.148;39.604;2023-05-14T08:37:48;3.92;;;2.28;;
52031;SDS011;38044;45.148;39.604;2023-05-14T08:40:14;5.15;;;2.53;;
52031;SDS011;38044;45.148;39.604;2023-05-14T08:45:08;3.75;;;2.40;;
52031;SDS011;38044;45.148;39.604;2023-05-14T08:47:41;4.63;;;2.33;;
52031;SDS011;38044;45.148;39.604;2023-05-14T08:50:09;5.32;;;2.20;;
52031;SDS011;38044;45.148;39.604;2023-05-14T08:52:35;3.25;;;2.38;;
52031;SDS011;38044;45.148;39.604;2023-05-14T08:55:03;2.70;;;2.50;;
52031;SDS011;38044;45.148;39.604;2023-05-14T08:57:33;3.95;;;2.17;;
52031;SDS011;38044;45.148;39.604;2023-05-14T09:14:41;7.60;;;2.50;;
52031;SDS011;38044;45.148;39.604;2023-05-14T09:17:07;5.85;;;2.67;;
52031;SDS011;38044;45.148;39.604;2023-05-14T09:19:37;2.70;;;2.50;;
52031;SDS011;38044;45.148;39.604;2023-05-14T09:22:07;65.05;;;5.90;;
52031;SDS011;38044;45.148;39.604;2023-05-14T09:24:37;4.32;;;2.40;;
52031;SDS011;38044;45.148;39.604;2023-05-14T09:34:22;2.97;;;2.58;;
52031;SDS011;38044;45.148;39.604;2023-05-14T09:36:53;2.65;;;2.45;;
52031;SDS011;38044;45.148;39.604;2023-05-14T09:39:29;7.40;;;4.45;;
52031;SDS011;38044;45.148;39.604;2023-05-14T09:41:56;2.53;;;2.30;;
52031;SDS011;38044;45.148;39.604;2023-05-14T09:49:14;3.08;;;2.30;;
52031;SDS011;38044;45.148;39.604;2023-05-14T09:51:40;4.05;;;2.08;;
52031;SDS011;38044;45.148;39.604;2023-05-14T09:54:06;3.22;;;2.50;;
52031;SDS011;38044;45.148;39.604;2023-05-14T09:56:33;4.95;;;2.47;;
52031;SDS011;38044;45.148;39.604;2023-05-14T10:01:25;11.85;;;2.72;;
52031;SDS011;38044;45.148;39.604;2023-05-14T10:06:20;4.38;;;2.60;;
52031;SDS011;38044;45.148;39.604;2023-05-14T10:08:52;4.82;;;3.08;;
52031;SDS011;38044;45.148;39.604;2023-05-14T10:11:21;4.38;;;2.50;;
52031;SDS011;38044;45.148;39.604;2023-05-14T10:13:54;6.63;;;2.58;;
52031;SDS011;38044;45.148;39.604;2023-05-14T10:18:51;3.67;;;2.88;;
52031;SDS011;38044;45.148;39.604;2023-05-14T10:21:20;2.50;;;2.25;;
52031;SDS011;38044;45.148;39.604;2023-05-14T10:23:47;2.90;;;2.15;;
52031;SDS011;38044;45.148;39.604;2023-05-14T10:26:15;6.93;;;2.70;;
52031;SDS011;38044;45.148;39.604;2023-05-14T10:28:41;3.78;;;2.30;;
52031;SDS011;38044;45.148;39.604;2023-05-14T10:31:08;3.70;;;2.30;;
52031;SDS011;38044;45.148;39.604;2023-05-14T10:33:47;3.50;;;2.20;;
52031;SDS011;38044;45.148;39.604;2023-05-14T10:36:15;4.60;;;2.30;;
52031;SDS011;38044;45.148;39.604;2023-05-14T10:38:42;2.90;;;2.40;;
52031;SDS011;38044;45.148;39.604;2023-05-14T10:41:14;3.15;;;2.33;;
52031;SDS011;38044;45.148;39.604;2023-05-14T10:43:45;3.35;;;2.28;;
52031;SDS011;38044;45.148;39.604;2023-05-14T10:46:12;4.07;;;2.42;;
52031;SDS011;38044;45.148;39.604;2023-05-14T10:48:42;4.90;;;2.67;;
52031;SDS011;38044;45.148;39.604;2023-05-14T10:56:06;4.75;;;2.75;;
52031;SDS011;38044;45.148;39.604;2023-05-14T10:58:34;4.72;;;3.15;;
52031;SDS011;38044;45.148;39.604;2023-05-14T11:01:06;6.32;;;3.03;;
52031;SDS011;38044;45.148;39.604;2023-05-14T11:03:43;6.82;;;3.05;;
52031;SDS011;38044;45.148;39.604;2023-05-14T11:06:11;6.15;;;3.65;;
52031;SDS011;38044;45.148;39.604;2023-05-14T11:08:38;8.73;;;3.38;;
52031;SDS011;38044;45.148;39.604;2023-05-14T11:11:04;5.57;;;2.85;;
52031;SDS011;38044;45.148;39.604;2023-05-14T11:13:31;4.53;;;3.25;;
52031;SDS011;38044;45.148;39.604;2023-05-14T11:18:26;3.63;;;2.47;;
52031;SDS011;38044;45.148;39.604;2023-05-14T11:23:25;4.35;;;2.92;;
52031;SDS011;38044;45.148;39.604;2023-05-14T11:25:52;4.55;;;2.95;;
52031;SDS011;38044;45.148;39.604;2023-05-14T11:28:19;6.25;;;2.85;;
52031;SDS011;38044;45.148;39.604;2023-05-14T11:33:15;4.70;;;2.63;;
52031;SDS011;38044;45.148;39.604;2023-05-14T11:35:41;3.90;;;2.83;;
52031;SDS011;38044;45.148;39.604;2023-05-14T11:38:19;10.50;;;3.53;;
52031;SDS011;38044;45.148;39.604;2023-05-14T11:40:53;5.38;;;3.25;;
52031;SDS011;38044;45.148;39.604;2023-05-14T11:43:20;6.85;;;2.63;;
52031;SDS011;38044;45.148;39.604;2023-05-14T11:45:49;9.40;;;3.10;;
52031;SDS011;38044;45.148;39.604;2023-05-14T11:48:16;3.78;;;2.88;;
52031;SDS011;38044;45.148;39.604;2023-05-14T11:50:50;5.80;;;3.25;;
52031;SDS011;38044;45.148;39.604;2023-05-14T11:53:34;5.05;;;2.92;;
52031;SDS011;38044;45.148;39.604;2023-05-14T11:56:00;7.20;;;3.40;;
52031;SDS011;38044;45.148;39.604;2023-05-14T11:58:27;5.18;;;2.72;;
52031;SDS011;38044;45.148;39.604;2023-05-14T12:00:57;8.60;;;2.97;;
52031;SDS011;38044;45.148;39.604;2023-05-14T12:03:23;7.55;;;3.00;;
52031;SDS011;38044;45.148;39.604;2023-05-14T12:05:56;5.57;;;2.92;;
52031;SDS011;38044;45.148;39.604;2023-05-14T12:08:30;4.57;;;2.72;;
52031;SDS011;38044;45.148;39.604;2023-05-14T12:13:26;7.00;;;3.10;;
52031;SDS011;38044;45.148;39.604;2023-05-14T12:15:54;5.25;;;2.80;;
52031;SDS011;38044;45.148;39.604;2023-05-14T12:18:24;4.20;;;2.78;;
52031;SDS011;38044;45.148;39.604;2023-05-14T12:20:52;5.03;;;2.85;;
52031;SDS011;38044;45.148;39.604;2023-05-14T12:25:51;5.90;;;3.30;;
52031;SDS011;38044;45.148;39.604;2023-05-14T12:28:17;3.72;;;2.83;;
52031;SDS011;38044;45.148;39.604;2023-05-14T12:30:46;4.43;;;3.13;;
52031;SDS011;38044;45.148;39.604;2023-05-14T12:33:12;7.85;;;3.15;;
52031;SDS011;38044;45.148;39.604;2023-05-14T12:35:42;10.15;;;4.57;;
52031;SDS011;38044;45.148;39.604;2023-05-14T12:38:07;14.77;;;7.13;;
52031;SDS011;38044;45.148;39.604;2023-05-14T12:40:33;6.45;;;5.55;;
52031;SDS011;38044;45.148;39.604;2023-05-14T12:42:59;5.10;;;3.75;;
52031;SDS011;38044;45.148;39.604;2023-05-14T12:47:50;6.25;;;4.57;;
52031;SDS011;38044;45.148;39.604;2023-05-14T12:50:16;5.47;;;3.17;;
52031;SDS011;38044;45.148;39.604;2023-05-14T12:52:42;5.03;;;3.47;;
52031;SDS011;38044;45.148;39.604;2023-05-14T12:55:08;5.63;;;2.95;;
52031;SDS011;38044;45.148;39.604;2023-05-14T12:57:34;9.48;;;3.70;;
52031;SDS011;38044;45.148;39.604;2023-05-14T13:00:00;14.68;;;4.10;;
52031;SDS011;38044;45.148;39.604;2023-05-14T13:02:26;8.70;;;3.20;;
52031;SDS011;38044;45.148;39.604;2023-05-14T13:04:52;13.93;;;3.35;;
52031;SDS011;38044;45.148;39.604;2023-05-14T13:07:18;4.82;;;2.70;;
52031;SDS011;38044;45.148;39.604;2023-05-14T13:09:43;4.93;;;3.95;;
52031;SDS011;38044;45.148;39.604;2023-05-14T13:12:09;6.57;;;3.70;;
52031;SDS011;38044;45.148;39.604;2023-05-14T13:14:35;7.25;;;3.17;;
52031;SDS011;38044;45.148;39.604;2023-05-14T13:17:01;5.55;;;3.10;;
52031;SDS011;38044;45.148;39.604;2023-05-14T13:19:28;8.23;;;3.17;;
52031;SDS011;38044;45.148;39.604;2023-05-14T13:26:45;5.53;;;3.60;;
52031;SDS011;38044;45.148;39.604;2023-05-14T13:29:11;8.40;;;3.95;;
52031;SDS011;38044;45.148;39.604;2023-05-14T13:31:36;11.98;;;3.30;;
52031;SDS011;38044;45.148;39.604;2023-05-14T13:34:02;6.05;;;3.58;;
52031;SDS011;38044;45.148;39.604;2023-05-14T13:36:28;6.38;;;2.95;;
52031;SDS011;38044;45.148;39.604;2023-05-14T13:38:55;11.85;;;3.00;;
52031;SDS011;38044;45.148;39.604;2023-05-14T13:41:21;6.35;;;3.42;;
52031;SDS011;38044;45.148;39.604;2023-05-14T13:43:47;4.22;;;2.78;;
52031;SDS011;38044;45.148;39.604;2023-05-14T13:46:13;5.13;;;3.50;;
52031;SDS011;38044;45.148;39.604;2023-05-14T13:48:41;7.82;;;4.18;;
52031;SDS011;38044;45.148;39.604;2023-05-14T13:51:07;4.47;;;2.80;;
52031;SDS011;38044;45.148;39.604;2023-05-14T13:53:33;4.90;;;2.92;;
52031;SDS011;38044;45.148;39.604;2023-05-14T13:55:59;6.40;;;4.38;;
52031;SDS011;38044;45.148;39.604;2023-05-14T13:58:26;6.75;;;3.67;;
52031;SDS011;38044;45.148;39.604;2023-05-14T14:00:52;16.90;;;4.35;;
52031;SDS011;38044;45.148;39.604;2023-05-14T14:03:18;7.28;;;3.10;;
52031;SDS011;38044;45.148;39.604;2023-05-14T14:05:44;8.93;;;3.83;;
52031;SDS011;38044;45.148;39.604;2023-05-14T14:08:10;8.60;;;3.38;;
52031;SDS011;38044;45.148;39.604;2023-05-14T14:10:37;7.45;;;3.58;;
52031;SDS011;38044;45.148;39.604;2023-05-14T14:13:05;7.35;;;3.75;;
52031;SDS011;38044;45.148;39.604;2023-05-14T14:15:31;6.63;;;4.35;;
52031;SDS011;38044;45.148;39.604;2023-05-14T14:17:56;4.53;;;3.42;;
52031;SDS011;38044;45.148;39.604;2023-05-14T14:40:12;7.15;;;3.30;;
52031;SDS011;38044;45.148;39.604;2023-05-14T14:42:38;21.90;;;10.43;;
52031;SDS011;38044;45.148;39.604;2023-05-14T14:57:16;7.82;;;4.15;;
52031;SDS011;38044;45.148;39.604;2023-05-14T14:59:41;11.88;;;4.35;;
52031;SDS011;38044;45.148;39.604;2023-05-14T15:02:07;8.73;;;4.43;;
52031;SDS011;38044;45.148;39.604;2023-05-14T15:04:34;9.98;;;3.92;;
52031;SDS011;38044;45.148;39.604;2023-05-14T15:07:00;6.75;;;3.63;;
52031;SDS011;38044;45.148;39.604;2023-05-14T15:09:27;12.07;;;4.60;;
52031;SDS011;38044;45.148;39.604;2023-05-14T15:11:53;8.80;;;4.38;;
52031;SDS011;38044;45.148;39.604;2023-05-14T15:14:19;5.95;;;3.30;;
52031;SDS011;38044;45.148;39.604;2023-05-14T15:16:45;5.13;;;2.22;;
52031;SDS011;38044;45.148;39.604;2023-05-14T15:19:11;2.33;;;1.60;;
52031;SDS011;38044;45.148;39.604;2023-05-14T15:21:37;1.98;;;1.45;;
52031;SDS011;38044;45.148;39.604;2023-05-14T15:24:03;4.68;;;1.50;;
52031;SDS011;38044;45.148;39.604;2023-05-14T15:26:29;1.85;;;1.50;;
52031;SDS011;38044;45.148;39.604;2023-05-14T15:38:39;5.97;;;2.10;;
52031;SDS011;38044;45.148;39.604;2023-05-14T15:41:06;4.28;;;2.20;;
52031;SDS011;38044;45.148;39.604;2023-05-14T15:43:32;4.13;;;1.90;;
52031;SDS011;38044;45.148;39.604;2023-05-14T15:45:58;7.90;;;3.78;;
52031;SDS011;38044;45.148;39.604;2023-05-14T15:48:27;16.30;;;6.82;;
52031;SDS011;38044;45.148;39.604;2023-05-14T15:50:53;18.92;;;6.95;;
52031;SDS011;38044;45.148;39.604;2023-05-14T15:53:19;8.07;;;3.33;;
52031;SDS011;38044;45.148;39.604;2023-05-14T15:55:48;15.45;;;8.05;;
52031;SDS011;38044;45.148;39.604;2023-05-14T16:00:39;11.57;;;4.80;;
52031;SDS011;38044;45.148;39.604;2023-05-14T16:03:05;6.65;;;3.00;;
52031;SDS011;38044;45.148;39.604;2023-05-14T16:05:31;11.50;;;3.33;;
52031;SDS011;38044;45.148;39.604;2023-05-14T16:07:57;10.48;;;4.60;;
52031;SDS011;38044;45.148;39.604;2023-05-14T16:12:49;15.18;;;9.18;;
52031;SDS011;38044;45.148;39.604;2023-05-14T16:15:14;11.45;;;8.75;;
52031;SDS011;38044;45.148;39.604;2023-05-14T16:17:40;7.82;;;4.40;;
52031;SDS011;38044;45.148;39.604;2023-05-14T16:20:06;8.70;;;4.63;;
52031;SDS011;38044;45.148;39.604;2023-05-14T16:22:33;7.15;;;3.95;;
52031;SDS011;38044;45.148;39.604;2023-05-14T16:25:00;5.97;;;3.33;;
52031;SDS011;38044;45.148;39.604;2023-05-14T16:27:26;5.88;;;3.78;;
52031;SDS011;38044;45.148;39.604;2023-05-14T16:29:52;3.45;;;2.15;;
52031;SDS011;38044;45.148;39.604;2023-05-14T16:32:18;2.85;;;1.90;;
52031;SDS011;38044;45.148;39.604;2023-05-14T16:34:43;4.32;;;2.00;;
52031;SDS011;38044;45.148;39.604;2023-05-14T16:37:14;2.20;;;1.60;;
52031;SDS011;38044;45.148;39.604;2023-05-14T16:39:40;2.40;;;1.58;;
52031;SDS011;38044;45.148;39.604;2023-05-14T16:42:07;1.90;;;1.40;;
52031;SDS011;38044;45.148;39.604;2023-05-14T16:44:33;2.40;;;1.40;;
52031;SDS011;38044;45.148;39.604;2023-05-14T16:46:59;2.67;;;1.60;;
52031;SDS011;38044;45.148;39.604;2023-05-14T16:49:24;5.30;;;1.30;;
52031;SDS011;38044;45.148;39.604;2023-05-14T16:51:50;3.80;;;1.33;;
52031;SDS011;38044;45.148;39.604;2023-05-14T16:54:16;1.70;;;1.10;;
52031;SDS011;38044;45.148;39.604;2023-05-14T16:56:42;1.75;;;1.20;;
52031;SDS011;38044;45.148;39.604;2023-05-14T16:59:12;2.53;;;1.20;;
52031;SDS011;38044;45.148;39.604;2023-05-14T17:01:39;5.68;;;1.20;;
52031;SDS011;38044;45.148;39.604;2023-05-14T17:06:32;2.10;;;1.17;;
52031;SDS011;38044;45.148;39.604;2023-05-14T17:08:58;1.65;;;1.00;;
52031;SDS011;38044;45.148;39.604;2023-05-14T17:11:24;1.77;;;1.20;;
52031;SDS011;38044;45.148;39.604;2023-05-14T17:13:50;1.90;;;1.30;;
52031;SDS011;38044;45.148;39.604;2023-05-14T17:16:15;1.92;;;1.17;;
52031;SDS011;38044;45.148;39.604;2023-05-14T17:18:41;1.10;;;1.00;;
52031;SDS011;38044;45.148;39.604;2023-05-14T17:21:07;1.88;;;1.10;;
52031;SDS011;38044;45.148;39.604;2023-05-14T17:23:33;1.83;;;1.00;;
52031;SDS011;38044;45.148;39.604;2023-05-14T17:25:59;1.45;;;1.05;;
52031;SDS011;38044;45.148;39.604;2023-05-14T17:28:24;1.53;;;1.23;;
52031;SDS011;38044;45.148;39.604;2023-05-14T17:30:52;1.40;;;1.13;;
52031;SDS011;38044;45.148;39.604;2023-05-14T17:33:18;1.95;;;1.20;;
52031;SDS011;38044;45.148;39.604;2023-05-14T17:35:44;1.23;;;1.10;;
52031;SDS011;38044;45.148;39.604;2023-05-14T17:38:10;2.38;;;1.40;;
52031;SDS011;38044;45.148;39.604;2023-05-14T17:45:27;1.20;;;1.00;;
52031;SDS011;38044;45.148;39.604;2023-05-14T17:47:53;3.50;;;1.52;;
52031;SDS011;38044;45.148;39.604;2023-05-14T17:50:19;1.48;;;1.10;;
52031;SDS011;38044;45.148;39.604;2023-05-14T17:52:44;4.03;;;1.52;;
52031;SDS011;38044;45.148;39.604;2023-05-14T17:55:11;3.80;;;1.75;;
52031;SDS011;38044;45.148;39.604;2023-05-14T17:57:37;8.18;;;3.30;;
52031;SDS011;38044;45.148;39.604;2023-05-14T18:00:03;27.92;;;8.50;;
52031;SDS011;38044;45.148;39.604;2023-05-14T18:02:30;26.25;;;8.85;;
52031;SDS011;38044;45.148;39.604;2023-05-14T18:04:55;24.67;;;8.02;;
52031;SDS011;38044;45.148;39.604;2023-05-14T18:07:21;26.98;;;8.73;;
52031;SDS011;38044;45.148;39.604;2023-05-14T18:09:47;18.58;;;7.50;;
52031;SDS011;38044;45.148;39.604;2023-05-14T18:12:13;7.43;;;2.70;;
52031;SDS011;38044;45.148;39.604;2023-05-14T18:14:39;10.85;;;4.05;;
52031;SDS011;38044;45.148;39.604;2023-05-14T18:17:05;9.93;;;4.20;;
52031;SDS011;38044;45.148;39.604;2023-05-14T18:19:31;11.93;;;4.25;;
52031;SDS011;38044;45.148;39.604;2023-05-14T18:21:57;11.85;;;4.32;;
52031;SDS011;38044;45.148;39.604;2023-05-14T18:24:22;9.15;;;4.45;;
52031;SDS011;38044;45.148;39.604;2023-05-14T18:26:48;7.30;;;3.85;;
52031;SDS011;38044;45.148;39.604;2023-05-14T18:29:14;12.68;;;5.10;;
52031;SDS011;38044;45.148;39.604;2023-05-14T18:31:40;9.18;;;4.40;;
52031;SDS011;38044;45.148;39.604;2023-05-14T18:34:06;6.43;;;3.78;;
52031;SDS011;38044;45.148;39.604;2023-05-14T18:36:33;8.05;;;3.83;;
52031;SDS011;38044;45.148;39.604;2023-05-14T18:38:59;7.47;;;4.05;;
52031;SDS011;38044;45.148;39.604;2023-05-14T18:41:25;6.22;;;3.75;;
52031;SDS011;38044;45.148;39.604;2023-05-14T18:43:50;4.63;;;3.40;;
52031;SDS011;38044;45.148;39.604;2023-05-14T18:46:16;5.45;;;3.00;;
52031;SDS011;38044;45.148;39.604;2023-05-14T18:48:42;5.60;;;3.20;;
52031;SDS011;38044;45.148;39.604;2023-05-14T18:51:08;5.88;;;3.75;;
52031;SDS011;38044;45.148;39.604;2023-05-14T18:53:35;6.90;;;3.90;;
52031;SDS011;38044;45.148;39.604;2023-05-14T18:56:01;6.20;;;3.72;;
52031;SDS011;38044;45.148;39.604;2023-05-14T19:10:35;6.47;;;3.25;;
52031;SDS011;38044;45.148;39.604;2023-05-14T19:13:01;7.38;;;3.63;;
52031;SDS011;38044;45.148;39.604;2023-05-14T19:18:18;4.90;;;2.95;;
52031;SDS011;38044;45.148;39.604;2023-05-14T19:20:44;4.95;;;2.60;;
52031;SDS011;38044;45.148;39.604;2023-05-14T19:23:10;4.03;;;2.33;;
52031;SDS011;38044;45.148;39.604;2023-05-14T19:25:36;4.75;;;3.08;;
52031;SDS011;38044;45.148;39.604;2023-05-14T19:28:02;7.15;;;3.67;;
52031;SDS011;38044;45.148;39.604;2023-05-14T19:30:29;4.45;;;3.03;;
52031;SDS011;38044;45.148;39.604;2023-05-14T19:32:55;5.25;;;3.00;;